createdAt,value
2022-11-17T00:00:44.652Z,93.31
2022-11-17T00:03:15.663Z,93.75
2022-11-17T00:05:44.483Z,93.89
2022-11-17T00:08:12.525Z,94.39
2022-11-17T00:10:40.266Z,94.57
2022-11-17T00:13:29.384Z,95.15
2022-11-17T00:15:57.409Z,95.54
2022-11-17T00:18:43.812Z,95.67
2022-11-17T00:21:19.429Z,96.30
2022-11-17T00:23:48.094Z,96.77
2022-11-17T00:26:35.923Z,96.74
2022-11-17T00:29:05.341Z,97.20
2022-11-17T00:31:53.096Z,97.37
2022-11-17T00:34:22.886Z,97.44
2022-11-17T00:36:55.325Z,97.65
2022-11-17T00:39:23.909Z,97.60
2022-11-17T00:41:51.742Z,97.89
2022-11-17T00:44:19.698Z,98.24
2022-11-17T00:46:48.473Z,98.41
2022-11-17T00:49:16.433Z,98.64
2022-11-17T00:51:44.296Z,98.77
2022-11-17T00:54:13.381Z,99.13
2022-11-17T00:56:41.608Z,99.25
2022-11-17T00:59:09.506Z,99.22
2022-11-17T01:01:38.307Z,99.22
2022-11-17T01:04:06.637Z,99.42
2022-11-17T01:06:37.923Z,99.57
2022-11-17T01:09:09.767Z,99.32
2022-11-17T01:11:37.625Z,99.41
2022-11-17T01:14:05.541Z,99.73
2022-11-17T01:16:33.952Z,99.81
2022-11-17T01:19:03.184Z,99.76
2022-11-17T01:21:32.110Z,99.83
2022-11-17T01:24:01.335Z,99.82
2022-11-17T01:26:35.021Z,99.87
2022-11-17T01:29:04.520Z,99.97
2022-11-17T01:31:38.686Z,99.99
2022-11-17T01:34:07.242Z,99.99
2022-11-17T01:36:57.938Z,99.99
2022-11-17T01:39:27.365Z,99.99
2022-11-17T01:41:55.799Z,99.99
2022-11-17T01:44:53.288Z,99.99
2022-11-17T01:47:36.086Z,99.99
2022-11-17T01:50:11.497Z,99.99
2022-11-17T01:52:41.051Z,99.99
2022-11-17T01:55:11.345Z,99.99
2022-11-17T01:58:13.420Z,99.99
2022-11-17T02:00:41.423Z,99.99
2022-11-17T02:03:09.882Z,99.99
2022-11-17T02:05:51.995Z,99.99
2022-11-17T02:08:22.979Z,99.99
2022-11-17T02:10:53.232Z,99.99
2022-11-17T02:13:21.945Z,99.99
2022-11-17T02:15:50.210Z,99.99
2022-11-17T02:18:18.680Z,99.99
2022-11-17T02:21:21.202Z,99.99
2022-11-17T02:24:06.997Z,99.99
2022-11-17T02:26:37.733Z,99.99
2022-11-17T02:29:14.489Z,99.99
2022-11-17T02:32:06.691Z,99.99
2022-11-17T02:34:40.458Z,99.99
2022-11-17T02:37:11.617Z,99.99
2022-11-17T02:39:48.116Z,99.99
2022-11-17T02:42:50.204Z,99.99
2022-11-17T02:45:40.147Z,99.99
2022-11-17T02:48:14.390Z,99.99
2022-11-17T02:50:46.223Z,99.99
2022-11-17T02:53:15.694Z,99.99
2022-11-17T02:55:50.523Z,99.99
2022-11-17T02:58:18.745Z,99.99
2022-11-17T03:01:00.541Z,99.99
2022-11-17T03:03:55.455Z,99.99
2022-11-17T03:07:02.357Z,99.99
2022-11-17T03:09:57.815Z,99.99
2022-11-17T03:12:35.946Z,99.99
2022-11-17T03:15:38.908Z,99.99
2022-11-17T03:18:22.625Z,99.99
2022-11-17T03:21:09.176Z,99.99
2022-11-17T03:23:43.233Z,99.99
2022-11-17T03:26:15.048Z,99.99
2022-11-17T03:28:46.185Z,99.99
2022-11-17T03:31:16.009Z,99.99
2022-11-17T03:33:47.152Z,99.99
2022-11-17T03:36:19.970Z,99.99
2022-11-17T03:39:06.786Z,99.99
2022-11-17T03:41:38.734Z,99.99
2022-11-17T03:44:07.686Z,99.99
2022-11-17T03:46:38.209Z,99.99
2022-11-17T03:49:15.703Z,99.99
2022-11-17T03:51:43.458Z,99.99
2022-11-17T03:54:11.611Z,99.99
2022-11-17T03:57:01.388Z,99.99
2022-11-17T03:59:51.539Z,99.99
2022-11-17T04:02:21.015Z,99.99
2022-11-17T04:05:07.267Z,99.99
2022-11-17T04:07:40.369Z,99.99
2022-11-17T04:10:13.987Z,99.99
2022-11-17T04:13:00.526Z,99.84
2022-11-17T04:15:47.702Z,99.81
2022-11-17T04:18:15.833Z,99.74
2022-11-17T04:20:43.661Z,99.72
2022-11-17T04:23:15.742Z,99.73
2022-11-17T04:26:07.874Z,99.76
2022-11-17T04:28:39.841Z,99.87
2022-11-17T04:31:18.363Z,99.81
2022-11-17T04:33:51.455Z,99.99
2022-11-17T04:36:30.538Z,99.89
2022-11-17T04:38:59.763Z,99.90
2022-11-17T04:41:48.455Z,99.58
2022-11-17T04:44:17.692Z,99.53
2022-11-17T04:46:46.606Z,99.50
2022-11-17T04:49:16.108Z,99.51
2022-11-17T04:51:44.487Z,99.30
2022-11-17T04:54:14.608Z,99.26
2022-11-17T04:56:42.334Z,99.44
2022-11-17T04:59:10.609Z,99.49
2022-11-17T05:01:38.633Z,99.75
2022-11-17T05:04:12.189Z,99.76
2022-11-17T05:06:44.734Z,99.68
2022-11-17T05:09:16.964Z,99.81
2022-11-17T05:12:03.680Z,99.99
2022-11-17T05:14:31.531Z,99.99
2022-11-17T05:17:09.558Z,99.99
2022-11-17T05:19:46.307Z,99.99
2022-11-17T05:22:35.571Z,99.99
2022-11-17T05:25:04.192Z,99.99
2022-11-17T05:27:33.735Z,99.99
2022-11-17T05:30:07.416Z,99.99
2022-11-17T05:32:35.243Z,99.99
2022-11-17T05:35:03.341Z,99.99
2022-11-17T05:37:31.190Z,99.99
2022-11-17T05:39:58.991Z,99.99
2022-11-17T05:42:26.728Z,99.99
2022-11-17T05:44:54.587Z,99.99
2022-11-17T05:47:22.358Z,99.99
2022-11-17T05:49:50.126Z,99.99
2022-11-17T05:52:17.968Z,99.99
2022-11-17T05:54:45.750Z,99.99
2022-11-17T05:57:20.280Z,99.99
2022-11-17T05:59:55.911Z,99.99
2022-11-17T06:02:39.143Z,99.99
2022-11-17T06:05:09.266Z,99.99
2022-11-17T06:07:37.706Z,99.99
2022-11-17T06:10:06.446Z,99.99
2022-11-17T06:12:34.309Z,99.99
2022-11-17T06:15:02.108Z,99.99
2022-11-17T06:17:34.735Z,99.99
2022-11-17T06:20:12.630Z,99.99
2022-11-17T06:22:45.422Z,99.99
2022-11-17T06:25:18.101Z,99.99
2022-11-17T06:27:46.868Z,99.99
2022-11-17T06:30:14.735Z,99.99
2022-11-17T06:32:43.916Z,99.99
2022-11-17T06:35:14.296Z,99.99
2022-11-17T06:37:42.332Z,99.99
2022-11-17T06:40:11.610Z,99.99
2022-11-17T06:42:58.306Z,99.99
2022-11-17T06:45:26.370Z,99.99
2022-11-17T06:47:54.713Z,99.99
2022-11-17T06:50:22.663Z,99.99
2022-11-17T06:52:50.639Z,99.99
2022-11-17T06:55:18.680Z,99.99
2022-11-17T06:57:51.905Z,99.99
2022-11-17T07:00:21.409Z,99.99
2022-11-17T07:02:49.363Z,99.99
2022-11-17T07:05:17.308Z,99.99
2022-11-17T07:07:45.239Z,99.99
2022-11-17T07:10:13.433Z,99.99
2022-11-17T07:12:41.661Z,99.99
2022-11-17T07:15:10.461Z,99.99
2022-11-17T07:17:39.027Z,99.99
2022-11-17T07:20:07.903Z,99.99
2022-11-17T07:22:36.283Z,99.99
2022-11-17T07:25:05.109Z,99.99
2022-11-17T07:27:33.327Z,99.99
2022-11-17T07:30:01.710Z,99.99
2022-11-17T07:32:31.407Z,99.99
2022-11-17T07:34:59.916Z,99.99
2022-11-17T07:37:28.630Z,99.99
2022-11-17T07:39:56.592Z,99.99
2022-11-17T07:42:24.416Z,99.99
2022-11-17T07:44:57.365Z,99.99
2022-11-17T07:47:25.164Z,99.99
2022-11-17T07:49:53.032Z,99.99
2022-11-17T07:52:20.877Z,99.95
2022-11-17T07:54:48.686Z,99.98
2022-11-17T07:57:16.857Z,99.99
2022-11-17T07:59:44.684Z,99.99
2022-11-17T08:02:12.646Z,99.99
2022-11-17T08:04:40.571Z,99.99
2022-11-17T08:07:08.656Z,99.99
2022-11-17T08:09:36.573Z,99.99
2022-11-17T08:12:04.579Z,99.99
2022-11-17T08:14:32.448Z,99.99
2022-11-17T08:17:00.422Z,99.99
2022-11-17T08:19:28.392Z,99.99
2022-11-17T08:21:56.426Z,99.99
2022-11-17T08:24:24.546Z,99.99
2022-11-17T08:26:53.686Z,99.99
2022-11-17T08:29:21.958Z,99.99
2022-11-17T08:31:50.483Z,99.91
2022-11-17T08:34:18.566Z,99.97
2022-11-17T08:36:46.617Z,99.99
2022-11-17T08:39:15.510Z,99.99
2022-11-17T08:41:43.406Z,99.99
2022-11-17T08:44:11.302Z,99.99
2022-11-17T08:46:39.336Z,99.99
2022-11-17T08:49:07.217Z,99.99
2022-11-17T08:51:35.308Z,99.99
2022-11-17T08:54:03.442Z,99.99
2022-11-17T08:56:31.707Z,99.99
2022-11-17T08:58:59.592Z,99.99
2022-11-17T09:01:27.605Z,99.99
2022-11-17T09:03:56.130Z,99.62
2022-11-17T09:06:24.036Z,99.24
2022-11-17T09:08:54.832Z,99.16
2022-11-17T09:11:23.177Z,98.77
2022-11-17T09:13:51.194Z,98.84
2022-11-17T09:16:19.103Z,98.77
2022-11-17T09:18:47.102Z,98.93
2022-11-17T09:21:16.334Z,98.88
2022-11-17T09:23:44.465Z,98.93
2022-11-17T09:26:15.311Z,98.99
2022-11-17T09:28:44.102Z,98.98
2022-11-17T09:31:18.471Z,98.89
2022-11-17T09:33:47.330Z,98.98
2022-11-17T09:36:16.468Z,99.08
2022-11-17T09:38:46.665Z,99.07
2022-11-17T09:41:22.786Z,99.28
2022-11-17T09:43:58.649Z,99.09
2022-11-17T09:46:56.614Z,98.85
2022-11-17T09:49:45.351Z,98.92
2022-11-17T09:52:35.834Z,98.91
2022-11-17T09:55:20.540Z,98.49
2022-11-17T09:57:58.370Z,98.09
2022-11-17T10:00:27.495Z,97.94
2022-11-17T10:02:55.891Z,97.73
2022-11-17T10:05:31.177Z,97.85
2022-11-17T10:08:07.333Z,97.38
2022-11-17T10:10:47.737Z,97.02
2022-11-17T10:13:35.437Z,97.20
2022-11-17T10:16:14.229Z,97.28
2022-11-17T10:18:43.365Z,96.91
2022-11-17T10:21:11.311Z,96.76
2022-11-17T10:23:46.965Z,96.60
2022-11-17T10:26:16.625Z,96.69
2022-11-17T10:28:44.919Z,96.76
2022-11-17T10:31:18.230Z,96.76
2022-11-17T10:33:49.242Z,96.71
2022-11-17T10:36:21.516Z,96.74
2022-11-17T10:38:52.450Z,96.93
2022-11-17T10:41:41.182Z,97.16
2022-11-17T10:44:25.558Z,97.07
2022-11-17T10:47:02.010Z,97.53
2022-11-17T10:49:35.725Z,97.64
2022-11-17T10:52:12.472Z,97.88
2022-11-17T10:54:40.277Z,97.84
2022-11-17T10:57:14.617Z,98.03
2022-11-17T10:59:56.731Z,97.96
2022-11-17T11:02:30.669Z,98.20
2022-11-17T11:05:09.511Z,97.79
2022-11-17T11:07:37.978Z,97.89
2022-11-17T11:10:16.323Z,98.04
2022-11-17T11:13:42.708Z,97.91
2022-11-17T11:16:12.082Z,97.55
2022-11-17T11:18:39.973Z,97.70
2022-11-17T11:21:38.264Z,97.32
2022-11-17T11:24:27.257Z,97.04
2022-11-17T11:27:12.864Z,97.39
2022-11-17T11:30:19.726Z,97.47
2022-11-17T11:32:48.305Z,97.40
2022-11-17T11:35:38.906Z,97.48
2022-11-17T11:38:21.828Z,97.60
2022-11-17T11:41:09.862Z,97.59
2022-11-17T11:43:48.249Z,97.13
2022-11-17T11:46:38.025Z,96.70
2022-11-17T11:49:29.736Z,96.40
2022-11-17T11:51:57.927Z,96.48
2022-11-17T11:54:54.372Z,96.59
2022-11-17T11:57:30.837Z,96.78
2022-11-17T12:00:08.028Z,96.76
2022-11-17T12:03:05.214Z,96.41
2022-11-17T12:05:59.935Z,96.59
2022-11-17T12:08:42.540Z,96.76
2022-11-17T12:11:35.190Z,96.49
2022-11-17T12:14:05.896Z,96.38
2022-11-17T12:16:36.251Z,96.13
2022-11-17T12:19:42.832Z,96.22
2022-11-17T12:22:34.509Z,96.19
2022-11-17T12:25:17.292Z,96.28
2022-11-17T12:27:49.675Z,96.32
2022-11-17T12:30:38.834Z,96.29
2022-11-17T12:33:08.572Z,96.52
2022-11-17T12:35:40.602Z,96.47
2022-11-17T12:38:17.698Z,96.27
2022-11-17T12:40:59.010Z,96.20
2022-11-17T12:43:29.845Z,96.26
2022-11-17T12:46:06.276Z,96.68
2022-11-17T12:48:35.834Z,96.71
2022-11-17T12:51:29.089Z,96.76
2022-11-17T12:54:06.144Z,96.97
2022-11-17T12:56:52.639Z,96.38
2022-11-17T12:59:30.303Z,96.63
2022-11-17T13:02:28.950Z,96.68
2022-11-17T13:05:09.802Z,96.44
2022-11-17T13:07:37.980Z,96.47
2022-11-17T13:10:06.204Z,96.72
2022-11-17T13:12:34.794Z,96.76
2022-11-17T13:15:05.717Z,95.98
2022-11-17T13:17:42.884Z,96.39
2022-11-17T13:20:27.447Z,96.82
2022-11-17T13:23:25.911Z,96.73
2022-11-17T13:26:38.477Z,96.77
2022-11-17T13:29:15.637Z,96.77
2022-11-17T13:32:06.394Z,95.90
2022-11-17T13:34:35.712Z,96.77
2022-11-17T13:37:03.996Z,96.39
2022-11-17T13:39:32.132Z,96.51
2022-11-17T13:42:02.350Z,96.73
2022-11-17T13:44:31.854Z,96.62
2022-11-17T13:47:20.707Z,96.78
2022-11-17T13:49:48.981Z,96.49
2022-11-17T13:52:47.245Z,96.30
2022-11-17T13:55:20.473Z,96.60
2022-11-17T13:58:01.985Z,96.63
2022-11-17T14:00:31.540Z,96.82
2022-11-17T14:03:25.836Z,97.09
2022-11-17T14:05:57.082Z,96.98
2022-11-17T14:08:29.495Z,97.15
2022-11-17T14:11:12.467Z,97.32
2022-11-17T14:14:01.126Z,97.63
2022-11-17T14:16:39.339Z,97.56
2022-11-17T14:19:16.347Z,97.63
2022-11-17T14:22:04.461Z,97.64
2022-11-17T14:24:32.960Z,97.47
2022-11-17T14:27:01.127Z,97.54
2022-11-17T14:29:29.787Z,97.61
2022-11-17T14:31:57.995Z,97.74
2022-11-17T14:34:25.918Z,97.89
2022-11-17T14:36:55.283Z,97.88
2022-11-17T14:39:23.719Z,97.93
2022-11-17T14:41:52.004Z,97.96
2022-11-17T14:44:22.019Z,98.01
2022-11-17T14:46:49.801Z,98.02
2022-11-17T14:49:17.928Z,98.14
2022-11-17T14:51:49.530Z,98.28
2022-11-17T14:54:17.435Z,98.43
2022-11-17T14:56:45.362Z,98.37
2022-11-17T14:59:13.476Z,98.25
2022-11-17T15:01:42.651Z,98.26
2022-11-17T15:04:48.892Z,98.35
2022-11-17T15:07:06.280Z,98.22
2022-11-17T15:09:34.573Z,98.04
2022-11-17T15:12:02.362Z,98.35
2022-11-17T15:14:30.100Z,98.14
2022-11-17T15:16:58.003Z,98.11
2022-11-17T15:19:25.868Z,98.04
2022-11-17T15:21:53.714Z,97.89
2022-11-17T15:24:22.231Z,97.99
2022-11-17T15:26:50.189Z,97.87
2022-11-17T15:29:18.515Z,97.71
2022-11-17T15:31:46.768Z,97.50
2022-11-17T15:34:19.868Z,97.38
2022-11-17T15:36:49.191Z,97.32
2022-11-17T15:39:18.011Z,97.44
2022-11-17T15:41:46.360Z,97.43
2022-11-17T15:44:14.778Z,96.91
2022-11-17T15:46:47.184Z,96.77
2022-11-17T15:49:16.140Z,96.74
2022-11-17T15:51:44.421Z,96.75
2022-11-17T15:54:18.567Z,96.58
2022-11-17T15:56:48.820Z,96.20
2022-11-17T15:59:16.959Z,96.23
2022-11-17T16:01:45.821Z,95.99
2022-11-17T16:04:16.009Z,95.71
2022-11-17T16:06:46.212Z,95.80
2022-11-17T16:09:15.331Z,95.60
2022-11-17T16:11:44.002Z,95.13
2022-11-17T16:14:12.044Z,95.34
2022-11-17T16:16:40.225Z,95.01
2022-11-17T16:19:08.296Z,94.91
2022-11-17T16:21:36.172Z,94.76
2022-11-17T16:24:04.330Z,94.60
2022-11-17T16:26:32.449Z,94.44
2022-11-17T16:29:04.257Z,94.45
2022-11-17T16:31:34.192Z,94.49
2022-11-17T16:34:13.121Z,94.56
2022-11-17T16:36:42.647Z,94.66
2022-11-17T16:39:17.041Z,94.38
2022-11-17T16:41:46.427Z,94.53
2022-11-17T16:44:16.377Z,94.38
2022-11-17T16:46:46.345Z,94.46
2022-11-17T16:49:16.165Z,94.21
2022-11-17T16:51:48.996Z,94.06
2022-11-17T16:54:18.223Z,94.17
2022-11-17T16:56:46.464Z,94.09
2022-11-17T16:59:14.911Z,94.05
2022-11-17T17:01:43.020Z,93.90
2022-11-17T17:04:12.244Z,93.31
2022-11-17T17:06:42.340Z,93.41
2022-11-17T17:09:12.762Z,93.24
2022-11-17T17:11:41.068Z,93.31
2022-11-17T17:14:12.515Z,93.23
2022-11-17T17:16:41.482Z,93.15
2022-11-17T17:19:11.180Z,93.02
2022-11-17T17:21:40.788Z,92.91
2022-11-17T17:24:10.295Z,93.17
2022-11-17T17:26:40.200Z,93.16
2022-11-17T17:29:08.956Z,93.12
2022-11-17T17:31:41.685Z,93.01
2022-11-17T17:34:10.987Z,93.27
2022-11-17T17:36:38.951Z,93.27
2022-11-17T17:39:07.923Z,93.24
2022-11-17T17:41:39.733Z,92.94
2022-11-17T17:44:08.521Z,92.82
2022-11-17T17:46:38.439Z,93.19
2022-11-17T17:49:06.931Z,92.94
2022-11-17T17:51:39.886Z,92.80
2022-11-17T17:54:10.400Z,92.75
2022-11-17T17:56:38.575Z,92.77
2022-11-17T17:59:06.575Z,92.65
2022-11-17T18:01:37.728Z,92.59
2022-11-17T18:04:06.691Z,92.63
2022-11-17T18:06:40.017Z,92.79
2022-11-17T18:09:10.440Z,92.45
2022-11-17T18:11:49.561Z,92.74
2022-11-17T18:14:22.486Z,92.68
2022-11-17T18:16:51.603Z,92.90
2022-11-17T18:19:20.391Z,92.84
2022-11-17T18:21:48.889Z,92.90
2022-11-17T18:24:16.814Z,92.53
2022-11-17T18:26:45.145Z,92.40
2022-11-17T18:29:16.231Z,92.55
2022-11-17T18:31:46.951Z,92.62
2022-11-17T18:34:23.370Z,92.47
2022-11-17T18:36:55.851Z,92.59
2022-11-17T18:39:24.827Z,92.49
2022-11-17T18:41:53.027Z,92.64
2022-11-17T18:44:21.211Z,92.55
2022-11-17T18:46:49.711Z,92.61
2022-11-17T18:49:18.121Z,92.66
2022-11-17T18:51:46.542Z,92.68
2022-11-17T18:54:15.099Z,92.70
2022-11-17T18:56:44.608Z,92.96
2022-11-17T18:59:12.969Z,93.10
2022-11-17T19:01:43.442Z,93.03
2022-11-17T19:04:14.079Z,93.05
2022-11-17T19:06:42.294Z,93.13
2022-11-17T19:09:11.695Z,93.01
2022-11-17T19:11:40.269Z,93.29
2022-11-17T19:14:11.247Z,93.46
2022-11-17T19:16:44.571Z,93.45
2022-11-17T19:19:14.598Z,93.49
2022-11-17T19:21:43.680Z,93.69
2022-11-17T19:24:12.343Z,93.82
2022-11-17T19:26:40.582Z,94.06
2022-11-17T19:29:16.140Z,94.05
2022-11-17T19:31:45.582Z,93.89
2022-11-17T19:34:14.204Z,93.80
2022-11-17T19:36:42.456Z,93.77
2022-11-17T19:39:12.892Z,93.84
2022-11-17T19:41:41.121Z,93.71
2022-11-17T19:44:12.488Z,93.89
2022-11-17T19:46:40.751Z,93.87
2022-11-17T19:49:09.077Z,94.23
2022-11-17T19:51:37.663Z,94.22
2022-11-17T19:54:09.034Z,93.87
2022-11-17T19:56:38.823Z,93.95
2022-11-17T19:59:15.744Z,94.11
2022-11-17T20:01:45.721Z,94.03
2022-11-17T20:04:13.917Z,94.17
2022-11-17T20:06:41.975Z,94.30
2022-11-17T20:09:12.303Z,94.26
2022-11-17T20:11:41.471Z,94.27
2022-11-17T20:14:10.774Z,94.43
2022-11-17T20:16:38.963Z,94.56
2022-11-17T20:19:07.736Z,94.42
2022-11-17T20:21:35.928Z,94.50
2022-11-17T20:24:04.451Z,94.59
2022-11-17T20:26:35.502Z,94.57
2022-11-17T20:29:03.609Z,94.41
2022-11-17T20:31:33.854Z,94.51
2022-11-17T20:34:04.596Z,94.66
2022-11-17T20:36:34.316Z,94.79
2022-11-17T20:39:05.314Z,95.05
2022-11-17T20:41:33.640Z,95.02
2022-11-17T20:44:04.491Z,95.05
2022-11-17T20:46:32.821Z,95.16
2022-11-17T20:49:01.339Z,95.45
2022-11-17T20:51:29.681Z,95.49
2022-11-17T20:53:57.737Z,95.38
2022-11-17T20:56:25.881Z,95.57
2022-11-17T20:58:54.505Z,95.53
2022-11-17T21:01:26.148Z,95.48
2022-11-17T21:03:54.374Z,95.49
2022-11-17T21:06:25.801Z,95.62
2022-11-17T21:08:53.970Z,95.49
2022-11-17T21:11:42.337Z,95.43
2022-11-17T21:14:12.827Z,95.43
2022-11-17T21:16:45.773Z,95.53
2022-11-17T21:19:14.617Z,95.41
2022-11-17T21:21:48.107Z,95.63
2022-11-17T21:24:16.418Z,95.65
2022-11-17T21:26:44.441Z,95.53
2022-11-17T21:29:13.664Z,95.33
2022-11-17T21:31:41.722Z,95.55
2022-11-17T21:34:16.562Z,95.73
2022-11-17T21:36:44.405Z,95.72
2022-11-17T21:39:18.355Z,95.96
2022-11-17T21:41:46.899Z,95.99
2022-11-17T21:44:14.940Z,96.11
2022-11-17T21:46:42.945Z,96.17
2022-11-17T21:49:13.189Z,96.11
2022-11-17T21:51:41.221Z,95.98
2022-11-17T21:54:10.182Z,96.05
2022-11-17T21:56:38.654Z,96.16
2022-11-17T21:59:11.858Z,96.37
2022-11-17T22:01:40.391Z,96.47
2022-11-17T22:04:09.065Z,96.50
2022-11-17T22:06:39.580Z,96.65
2022-11-17T22:09:07.961Z,96.73
2022-11-17T22:11:37.446Z,96.70
2022-11-17T22:14:20.108Z,96.80
2022-11-17T22:16:53.338Z,96.94
2022-11-17T22:19:23.323Z,97.04
2022-11-17T22:21:53.921Z,97.07
2022-11-17T22:24:22.093Z,97.15
2022-11-17T22:26:51.673Z,97.22
2022-11-17T22:29:21.553Z,97.25
2022-11-17T22:31:51.131Z,97.41
2022-11-17T22:34:19.560Z,97.38
2022-11-17T22:36:47.389Z,97.55
2022-11-17T22:39:16.532Z,97.65
2022-11-17T22:41:44.529Z,97.71
2022-11-17T22:44:16.701Z,97.76
2022-11-17T22:46:45.597Z,97.87
2022-11-17T22:49:13.847Z,97.96
2022-11-17T22:52:00.777Z,98.12
2022-11-17T22:54:29.384Z,98.13
2022-11-17T22:56:59.648Z,98.24
2022-11-17T22:59:29.944Z,98.29
2022-11-17T23:01:58.346Z,98.50
2022-11-17T23:04:26.768Z,98.50
2022-11-17T23:06:55.262Z,98.49
2022-11-17T23:09:23.289Z,98.57
2022-11-17T23:11:51.226Z,98.60
2022-11-17T23:14:19.140Z,98.71
2022-11-17T23:16:47.062Z,98.84
2022-11-17T23:19:15.773Z,98.81
2022-11-17T23:21:43.964Z,98.85
2022-11-17T23:24:13.020Z,98.96
2022-11-17T23:26:42.078Z,98.93
2022-11-17T23:29:10.342Z,99.01
2022-11-17T23:31:38.385Z,99.18
2022-11-17T23:34:08.477Z,99.26
2022-11-17T23:36:36.364Z,99.26
2022-11-17T23:39:04.330Z,99.52
2022-11-17T23:41:32.281Z,99.47
2022-11-17T23:44:00.307Z,99.48
2022-11-17T23:46:28.251Z,99.65
2022-11-17T23:48:59.017Z,99.73
2022-11-17T23:51:28.714Z,99.79
2022-11-17T23:54:00.035Z,99.83
2022-11-17T23:56:31.018Z,99.81
2022-11-17T23:58:59.109Z,99.88
